Terminal Aerodrome Forecast
Issued by NWS Wilmington, NC

Home | Current Version | Previous Version | Text Only | Print | Product List | Glossary On
Versions: 1 2 3 4 5 6 7 8 9 10 11 12 13 14 15 16 17
000
FTUS42 KILM 251100
TAFMYR
TAF
KMYR 251128Z 2512/2612 33005KT P6SM SKC
     FM251800 17011KT P6SM SKC
     FM260100 20006KT P6SM FEW120 FEW250
     FM260800 22007KT P6SM SCT045 BKN120=

USA.gov is the U.S. government's official web portal to all federal, state and local government web resources and services.